sensor_id;sensor_type;location;lat;lon;timestamp;P1;durP1;ratioP1;P2;durP2;ratioP2
20379;SDS011;10349;48.666;8.948;2022-08-19T00:01:56;10.77;;;9.67;;
20379;SDS011;10349;48.666;8.948;2022-08-19T00:04:26;15.30;;;11.43;;
20379;SDS011;10349;48.666;8.948;2022-08-19T00:06:58;13.70;;;10.90;;
20379;SDS011;10349;48.666;8.948;2022-08-19T00:09:24;12.93;;;10.80;;
20379;SDS011;10349;48.666;8.948;2022-08-19T00:11:52;17.10;;;11.30;;
20379;SDS011;10349;48.666;8.948;2022-08-19T00:14:20;13.07;;;10.30;;
20379;SDS011;10349;48.666;8.948;2022-08-19T00:16:47;13.43;;;11.23;;
20379;SDS011;10349;48.666;8.948;2022-08-19T00:19:14;17.70;;;12.10;;
20379;SDS011;10349;48.666;8.948;2022-08-19T00:21:40;15.97;;;11.83;;
20379;SDS011;10349;48.666;8.948;2022-08-19T00:24:07;16.17;;;11.87;;
20379;SDS011;10349;48.666;8.948;2022-08-19T00:26:34;13.63;;;11.37;;
20379;SDS011;10349;48.666;8.948;2022-08-19T00:29:01;15.93;;;11.23;;
20379;SDS011;10349;48.666;8.948;2022-08-19T00:31:28;12.03;;;10.43;;
20379;SDS011;10349;48.666;8.948;2022-08-19T00:33:54;14.97;;;11.43;;
20379;SDS011;10349;48.666;8.948;2022-08-19T00:36:20;13.70;;;11.20;;
20379;SDS011;10349;48.666;8.948;2022-08-19T00:38:45;13.40;;;11.27;;
20379;SDS011;10349;48.666;8.948;2022-08-19T00:41:15;16.53;;;10.90;;
20379;SDS011;10349;48.666;8.948;2022-08-19T00:43:56;18.80;;;11.23;;
20379;SDS011;10349;48.666;8.948;2022-08-19T00:46:30;15.83;;;11.67;;
20379;SDS011;10349;48.666;8.948;2022-08-19T00:48:58;20.83;;;13.93;;
20379;SDS011;10349;48.666;8.948;2022-08-19T00:51:28;17.50;;;11.93;;
20379;SDS011;10349;48.666;8.948;2022-08-19T00:53:55;18.30;;;12.97;;
20379;SDS011;10349;48.666;8.948;2022-08-19T00:56:23;15.90;;;11.80;;
20379;SDS011;10349;48.666;8.948;2022-08-19T00:58:52;19.10;;;13.07;;
20379;SDS011;10349;48.666;8.948;2022-08-19T01:01:20;15.93;;;11.47;;
20379;SDS011;10349;48.666;8.948;2022-08-19T01:03:46;17.33;;;12.43;;
20379;SDS011;10349;48.666;8.948;2022-08-19T01:06:11;17.70;;;13.33;;
20379;SDS011;10349;48.666;8.948;2022-08-19T01:08:39;19.60;;;14.17;;
20379;SDS011;10349;48.666;8.948;2022-08-19T01:11:05;18.07;;;12.47;;
20379;SDS011;10349;48.666;8.948;2022-08-19T01:13:35;22.40;;;13.60;;
20379;SDS011;10349;48.666;8.948;2022-08-19T01:16:04;20.90;;;13.40;;
20379;SDS011;10349;48.666;8.948;2022-08-19T01:18:36;16.30;;;12.20;;
20379;SDS011;10349;48.666;8.948;2022-08-19T01:21:10;18.60;;;12.60;;
20379;SDS011;10349;48.666;8.948;2022-08-19T01:23:42;19.40;;;13.67;;
20379;SDS011;10349;48.666;8.948;2022-08-19T01:26:13;17.77;;;12.60;;
20379;SDS011;10349;48.666;8.948;2022-08-19T01:28:44;15.50;;;13.00;;
20379;SDS011;10349;48.666;8.948;2022-08-19T01:31:14;22.70;;;14.47;;
20379;SDS011;10349;48.666;8.948;2022-08-19T01:33:41;14.90;;;12.27;;
20379;SDS011;10349;48.666;8.948;2022-08-19T01:36:10;18.37;;;12.90;;
20379;SDS011;10349;48.666;8.948;2022-08-19T01:38:38;17.90;;;12.93;;
20379;SDS011;10349;48.666;8.948;2022-08-19T01:41:07;19.67;;;13.60;;
20379;SDS011;10349;48.666;8.948;2022-08-19T01:43:34;18.87;;;14.10;;
20379;SDS011;10349;48.666;8.948;2022-08-19T01:46:00;20.67;;;14.40;;
20379;SDS011;10349;48.666;8.948;2022-08-19T01:48:26;20.07;;;14.70;;
20379;SDS011;10349;48.666;8.948;2022-08-19T01:50:54;18.47;;;13.90;;
20379;SDS011;10349;48.666;8.948;2022-08-19T01:53:20;19.07;;;13.40;;
20379;SDS011;10349;48.666;8.948;2022-08-19T01:55:46;16.90;;;13.10;;
20379;SDS011;10349;48.666;8.948;2022-08-19T01:58:17;20.30;;;13.80;;
20379;SDS011;10349;48.666;8.948;2022-08-19T02:00:45;22.13;;;14.27;;
20379;SDS011;10349;48.666;8.948;2022-08-19T02:03:11;22.77;;;14.30;;
20379;SDS011;10349;48.666;8.948;2022-08-19T02:05:38;24.53;;;14.60;;
20379;SDS011;10349;48.666;8.948;2022-08-19T02:08:05;22.30;;;15.03;;
20379;SDS011;10349;48.666;8.948;2022-08-19T02:10:30;21.83;;;14.47;;
20379;SDS011;10349;48.666;8.948;2022-08-19T02:12:57;23.10;;;15.37;;
20379;SDS011;10349;48.666;8.948;2022-08-19T02:15:23;24.70;;;15.17;;
20379;SDS011;10349;48.666;8.948;2022-08-19T02:17:49;23.73;;;14.97;;
20379;SDS011;10349;48.666;8.948;2022-08-19T02:20:15;23.80;;;15.90;;
20379;SDS011;10349;48.666;8.948;2022-08-19T02:22:42;21.17;;;13.97;;
20379;SDS011;10349;48.666;8.948;2022-08-19T02:25:09;22.20;;;14.40;;
20379;SDS011;10349;48.666;8.948;2022-08-19T02:27:36;25.23;;;15.50;;
20379;SDS011;10349;48.666;8.948;2022-08-19T02:30:03;23.80;;;15.50;;
20379;SDS011;10349;48.666;8.948;2022-08-19T02:32:30;21.87;;;14.67;;
20379;SDS011;10349;48.666;8.948;2022-08-19T02:34:56;21.47;;;14.77;;
20379;SDS011;10349;48.666;8.948;2022-08-19T02:37:21;22.90;;;14.10;;
20379;SDS011;10349;48.666;8.948;2022-08-19T02:40:06;24.77;;;13.50;;
20379;SDS011;10349;48.666;8.948;2022-08-19T02:42:32;20.87;;;14.53;;
20379;SDS011;10349;48.666;8.948;2022-08-19T02:44:57;24.13;;;14.23;;
20379;SDS011;10349;48.666;8.948;2022-08-19T02:47:23;23.03;;;13.97;;
20379;SDS011;10349;48.666;8.948;2022-08-19T02:49:49;19.27;;;13.87;;
20379;SDS011;10349;48.666;8.948;2022-08-19T02:52:15;18.20;;;14.07;;
20379;SDS011;10349;48.666;8.948;2022-08-19T02:54:41;19.57;;;14.20;;
20379;SDS011;10349;48.666;8.948;2022-08-19T02:57:07;23.40;;;15.27;;
20379;SDS011;10349;48.666;8.948;2022-08-19T02:59:33;21.80;;;15.20;;
20379;SDS011;10349;48.666;8.948;2022-08-19T03:01:59;20.37;;;15.00;;
20379;SDS011;10349;48.666;8.948;2022-08-19T03:04:24;19.50;;;15.57;;
20379;SDS011;10349;48.666;8.948;2022-08-19T03:06:50;25.23;;;14.90;;
20379;SDS011;10349;48.666;8.948;2022-08-19T03:09:16;22.77;;;15.97;;
20379;SDS011;10349;48.666;8.948;2022-08-19T03:11:44;23.97;;;15.40;;
20379;SDS011;10349;48.666;8.948;2022-08-19T03:14:10;24.20;;;15.23;;
20379;SDS011;10349;48.666;8.948;2022-08-19T03:16:44;22.87;;;15.60;;
20379;SDS011;10349;48.666;8.948;2022-08-19T03:19:11;23.70;;;15.57;;
20379;SDS011;10349;48.666;8.948;2022-08-19T03:21:38;27.90;;;17.03;;
20379;SDS011;10349;48.666;8.948;2022-08-19T03:24:05;25.67;;;15.70;;
20379;SDS011;10349;48.666;8.948;2022-08-19T03:26:33;27.93;;;18.50;;
20379;SDS011;10349;48.666;8.948;2022-08-19T03:29:03;26.87;;;16.60;;
20379;SDS011;10349;48.666;8.948;2022-08-19T03:31:29;24.60;;;15.73;;
20379;SDS011;10349;48.666;8.948;2022-08-19T03:33:56;24.47;;;18.07;;
20379;SDS011;10349;48.666;8.948;2022-08-19T03:36:23;26.63;;;16.83;;
20379;SDS011;10349;48.666;8.948;2022-08-19T03:38:57;24.60;;;15.60;;
20379;SDS011;10349;48.666;8.948;2022-08-19T03:41:29;22.43;;;16.00;;
20379;SDS011;10349;48.666;8.948;2022-08-19T03:43:56;24.63;;;16.90;;
20379;SDS011;10349;48.666;8.948;2022-08-19T03:46:24;21.97;;;16.67;;
20379;SDS011;10349;48.666;8.948;2022-08-19T03:48:53;27.90;;;18.80;;
20379;SDS011;10349;48.666;8.948;2022-08-19T03:51:22;27.27;;;17.07;;
20379;SDS011;10349;48.666;8.948;2022-08-19T03:53:50;30.87;;;19.00;;
20379;SDS011;10349;48.666;8.948;2022-08-19T03:56:16;26.27;;;17.47;;
20379;SDS011;10349;48.666;8.948;2022-08-19T03:58:42;25.80;;;16.63;;
20379;SDS011;10349;48.666;8.948;2022-08-19T04:01:12;27.13;;;18.33;;
20379;SDS011;10349;48.666;8.948;2022-08-19T04:03:40;27.33;;;17.47;;
20379;SDS011;10349;48.666;8.948;2022-08-19T04:06:10;24.50;;;17.73;;
20379;SDS011;10349;48.666;8.948;2022-08-19T04:08:43;25.50;;;17.60;;
20379;SDS011;10349;48.666;8.948;2022-08-19T04:11:11;25.10;;;16.97;;
20379;SDS011;10349;48.666;8.948;2022-08-19T04:13:39;29.80;;;18.30;;
20379;SDS011;10349;48.666;8.948;2022-08-19T04:16:05;26.80;;;17.33;;
20379;SDS011;10349;48.666;8.948;2022-08-19T04:18:35;26.63;;;17.97;;
20379;SDS011;10349;48.666;8.948;2022-08-19T04:21:01;23.93;;;17.30;;
20379;SDS011;10349;48.666;8.948;2022-08-19T04:23:28;26.60;;;18.33;;
20379;SDS011;10349;48.666;8.948;2022-08-19T04:25:54;26.80;;;17.17;;
20379;SDS011;10349;48.666;8.948;2022-08-19T04:28:20;30.77;;;18.23;;
20379;SDS011;10349;48.666;8.948;2022-08-19T04:30:47;28.03;;;15.80;;
20379;SDS011;10349;48.666;8.948;2022-08-19T04:33:19;30.93;;;17.60;;
20379;SDS011;10349;48.666;8.948;2022-08-19T04:35:47;30.70;;;18.53;;
20379;SDS011;10349;48.666;8.948;2022-08-19T04:38:15;29.47;;;21.00;;
20379;SDS011;10349;48.666;8.948;2022-08-19T04:40:44;26.23;;;19.00;;
20379;SDS011;10349;48.666;8.948;2022-08-19T04:43:30;28.30;;;17.97;;
20379;SDS011;10349;48.666;8.948;2022-08-19T04:45:57;29.93;;;18.20;;
20379;SDS011;10349;48.666;8.948;2022-08-19T04:48:23;32.33;;;18.77;;
20379;SDS011;10349;48.666;8.948;2022-08-19T04:50:55;28.03;;;17.13;;
20379;SDS011;10349;48.666;8.948;2022-08-19T04:53:29;27.67;;;18.10;;
20379;SDS011;10349;48.666;8.948;2022-08-19T04:55:56;27.80;;;19.47;;
20379;SDS011;10349;48.666;8.948;2022-08-19T04:58:24;26.97;;;16.97;;
20379;SDS011;10349;48.666;8.948;2022-08-19T05:00:51;24.77;;;17.70;;
20379;SDS011;10349;48.666;8.948;2022-08-19T05:03:17;24.77;;;17.10;;
20379;SDS011;10349;48.666;8.948;2022-08-19T05:05:43;26.53;;;17.03;;
20379;SDS011;10349;48.666;8.948;2022-08-19T05:08:11;30.50;;;20.47;;
20379;SDS011;10349;48.666;8.948;2022-08-19T05:10:38;27.40;;;18.10;;
20379;SDS011;10349;48.666;8.948;2022-08-19T05:13:04;29.33;;;18.13;;
20379;SDS011;10349;48.666;8.948;2022-08-19T05:15:30;35.87;;;19.90;;
20379;SDS011;10349;48.666;8.948;2022-08-19T05:17:56;30.73;;;19.13;;
20379;SDS011;10349;48.666;8.948;2022-08-19T05:20:40;28.93;;;19.00;;
20379;SDS011;10349;48.666;8.948;2022-08-19T05:23:24;31.33;;;18.73;;
20379;SDS011;10349;48.666;8.948;2022-08-19T05:25:50;30.30;;;18.50;;
20379;SDS011;10349;48.666;8.948;2022-08-19T05:28:17;30.47;;;20.47;;
20379;SDS011;10349;48.666;8.948;2022-08-19T05:30:44;34.50;;;19.83;;
20379;SDS011;10349;48.666;8.948;2022-08-19T05:33:10;27.97;;;18.57;;
20379;SDS011;10349;48.666;8.948;2022-08-19T05:35:40;29.10;;;18.30;;
20379;SDS011;10349;48.666;8.948;2022-08-19T05:38:06;30.33;;;19.40;;
20379;SDS011;10349;48.666;8.948;2022-08-19T05:40:36;31.93;;;17.33;;
20379;SDS011;10349;48.666;8.948;2022-08-19T05:43:04;29.00;;;20.10;;
20379;SDS011;10349;48.666;8.948;2022-08-19T05:45:31;26.67;;;16.93;;
20379;SDS011;10349;48.666;8.948;2022-08-19T05:47:57;26.60;;;19.87;;
20379;SDS011;10349;48.666;8.948;2022-08-19T05:50:23;31.10;;;18.40;;
20379;SDS011;10349;48.666;8.948;2022-08-19T05:52:53;28.83;;;18.37;;
20379;SDS011;10349;48.666;8.948;2022-08-19T05:55:18;36.20;;;19.50;;
20379;SDS011;10349;48.666;8.948;2022-08-19T05:57:46;30.50;;;18.30;;
20379;SDS011;10349;48.666;8.948;2022-08-19T06:00:12;23.50;;;17.13;;
20379;SDS011;10349;48.666;8.948;2022-08-19T06:02:39;28.80;;;18.23;;
20379;SDS011;10349;48.666;8.948;2022-08-19T06:05:06;24.83;;;17.57;;
20379;SDS011;10349;48.666;8.948;2022-08-19T06:07:37;26.83;;;17.30;;
20379;SDS011;10349;48.666;8.948;2022-08-19T06:10:08;24.40;;;15.83;;
20379;SDS011;10349;48.666;8.948;2022-08-19T06:12:35;25.03;;;18.37;;
20379;SDS011;10349;48.666;8.948;2022-08-19T06:15:06;24.27;;;18.20;;
20379;SDS011;10349;48.666;8.948;2022-08-19T06:17:34;20.33;;;14.90;;
20379;SDS011;10349;48.666;8.948;2022-08-19T06:20:00;27.07;;;18.17;;
20379;SDS011;10349;48.666;8.948;2022-08-19T06:22:27;23.97;;;17.70;;
20379;SDS011;10349;48.666;8.948;2022-08-19T06:24:53;29.20;;;18.57;;
20379;SDS011;10349;48.666;8.948;2022-08-19T06:27:19;23.03;;;16.47;;
20379;SDS011;10349;48.666;8.948;2022-08-19T06:29:46;23.53;;;17.30;;
20379;SDS011;10349;48.666;8.948;2022-08-19T06:32:12;28.07;;;19.23;;
20379;SDS011;10349;48.666;8.948;2022-08-19T06:34:39;27.80;;;17.87;;
20379;SDS011;10349;48.666;8.948;2022-08-19T06:37:06;27.07;;;18.00;;
20379;SDS011;10349;48.666;8.948;2022-08-19T06:39:34;23.20;;;16.07;;
20379;SDS011;10349;48.666;8.948;2022-08-19T06:42:03;31.93;;;17.90;;
20379;SDS011;10349;48.666;8.948;2022-08-19T06:44:35;28.20;;;17.70;;
20379;SDS011;10349;48.666;8.948;2022-08-19T06:47:05;22.30;;;16.43;;
20379;SDS011;10349;48.666;8.948;2022-08-19T06:49:33;24.70;;;16.17;;
20379;SDS011;10349;48.666;8.948;2022-08-19T06:52:00;28.70;;;18.53;;
20379;SDS011;10349;48.666;8.948;2022-08-19T06:54:26;27.10;;;17.33;;
20379;SDS011;10349;48.666;8.948;2022-08-19T06:56:54;26.67;;;17.30;;
20379;SDS011;10349;48.666;8.948;2022-08-19T06:59:21;22.93;;;16.67;;
20379;SDS011;10349;48.666;8.948;2022-08-19T07:01:52;26.40;;;16.23;;
20379;SDS011;10349;48.666;8.948;2022-08-19T07:04:21;23.30;;;16.30;;
20379;SDS011;10349;48.666;8.948;2022-08-19T07:06:49;23.77;;;16.37;;
20379;SDS011;10349;48.666;8.948;2022-08-19T07:09:16;25.00;;;15.03;;
20379;SDS011;10349;48.666;8.948;2022-08-19T07:11:47;25.57;;;16.20;;
20379;SDS011;10349;48.666;8.948;2022-08-19T07:14:14;22.70;;;15.13;;
20379;SDS011;10349;48.666;8.948;2022-08-19T07:16:43;20.33;;;15.83;;
20379;SDS011;10349;48.666;8.948;2022-08-19T07:19:10;22.07;;;14.80;;
20379;SDS011;10349;48.666;8.948;2022-08-19T07:21:37;21.83;;;15.40;;
20379;SDS011;10349;48.666;8.948;2022-08-19T07:24:03;24.63;;;17.10;;
20379;SDS011;10349;48.666;8.948;2022-08-19T07:26:30;21.20;;;14.43;;
20379;SDS011;10349;48.666;8.948;2022-08-19T07:28:58;22.80;;;15.07;;
20379;SDS011;10349;48.666;8.948;2022-08-19T07:31:26;25.67;;;15.17;;
20379;SDS011;10349;48.666;8.948;2022-08-19T07:33:53;22.63;;;15.20;;
20379;SDS011;10349;48.666;8.948;2022-08-19T07:36:24;19.97;;;15.20;;
20379;SDS011;10349;48.666;8.948;2022-08-19T07:38:55;18.80;;;14.80;;
20379;SDS011;10349;48.666;8.948;2022-08-19T07:41:21;25.07;;;15.87;;
20379;SDS011;10349;48.666;8.948;2022-08-19T07:43:49;22.37;;;15.87;;
20379;SDS011;10349;48.666;8.948;2022-08-19T07:46:16;18.30;;;14.93;;
20379;SDS011;10349;48.666;8.948;2022-08-19T07:48:43;20.07;;;14.87;;
20379;SDS011;10349;48.666;8.948;2022-08-19T07:51:13;22.43;;;15.43;;
20379;SDS011;10349;48.666;8.948;2022-08-19T07:53:41;22.20;;;15.60;;
20379;SDS011;10349;48.666;8.948;2022-08-19T07:56:10;18.80;;;14.20;;
20379;SDS011;10349;48.666;8.948;2022-08-19T07:58:38;22.33;;;15.33;;
20379;SDS011;10349;48.666;8.948;2022-08-19T08:01:05;26.07;;;16.33;;
20379;SDS011;10349;48.666;8.948;2022-08-19T08:03:33;24.27;;;14.53;;
20379;SDS011;10349;48.666;8.948;2022-08-19T08:06:17;21.63;;;15.73;;
20379;SDS011;10349;48.666;8.948;2022-08-19T08:09:03;19.07;;;13.37;;
20379;SDS011;10349;48.666;8.948;2022-08-19T08:11:36;19.97;;;15.30;;
20379;SDS011;10349;48.666;8.948;2022-08-19T08:14:03;19.17;;;13.90;;
20379;SDS011;10349;48.666;8.948;2022-08-19T08:16:30;21.07;;;13.80;;
20379;SDS011;10349;48.666;8.948;2022-08-19T08:19:05;24.33;;;16.73;;
20379;SDS011;10349;48.666;8.948;2022-08-19T08:21:32;17.73;;;13.97;;
20379;SDS011;10349;48.666;8.948;2022-08-19T08:23:59;18.80;;;14.70;;
20379;SDS011;10349;48.666;8.948;2022-08-19T08:26:25;16.37;;;14.13;;
20379;SDS011;10349;48.666;8.948;2022-08-19T08:28:54;19.80;;;12.87;;
20379;SDS011;10349;48.666;8.948;2022-08-19T08:31:19;19.70;;;15.07;;
20379;SDS011;10349;48.666;8.948;2022-08-19T08:33:45;21.93;;;14.33;;
20379;SDS011;10349;48.666;8.948;2022-08-19T08:36:12;18.50;;;14.20;;
20379;SDS011;10349;48.666;8.948;2022-08-19T08:38:39;20.63;;;14.90;;
20379;SDS011;10349;48.666;8.948;2022-08-19T08:44:06;23.90;;;14.13;;
20379;SDS011;10349;48.666;8.948;2022-08-19T08:46:41;17.43;;;13.47;;
20379;SDS011;10349;48.666;8.948;2022-08-19T08:49:17;19.43;;;14.70;;
20379;SDS011;10349;48.666;8.948;2022-08-19T08:52:04;20.77;;;14.80;;
20379;SDS011;10349;48.666;8.948;2022-08-19T08:54:37;19.37;;;14.50;;
20379;SDS011;10349;48.666;8.948;2022-08-19T08:57:09;17.67;;;13.20;;
20379;SDS011;10349;48.666;8.948;2022-08-19T08:59:39;16.70;;;13.57;;
20379;SDS011;10349;48.666;8.948;2022-08-19T09:02:06;20.03;;;14.47;;
20379;SDS011;10349;48.666;8.948;2022-08-19T09:04:34;22.40;;;15.27;;
20379;SDS011;10349;48.666;8.948;2022-08-19T09:07:10;17.83;;;14.20;;
20379;SDS011;10349;48.666;8.948;2022-08-19T09:09:49;17.13;;;14.63;;
20379;SDS011;10349;48.666;8.948;2022-08-19T09:14:52;22.30;;;14.63;;
20379;SDS011;10349;48.666;8.948;2022-08-19T09:17:28;18.97;;;14.50;;
20379;SDS011;10349;48.666;8.948;2022-08-19T09:22:38;21.50;;;14.40;;
20379;SDS011;10349;48.666;8.948;2022-08-19T09:25:06;20.73;;;15.03;;
20379;SDS011;10349;48.666;8.948;2022-08-19T09:27:35;19.13;;;13.10;;
20379;SDS011;10349;48.666;8.948;2022-08-19T09:30:04;20.67;;;14.33;;
20379;SDS011;10349;48.666;8.948;2022-08-19T09:32:31;21.10;;;15.00;;
20379;SDS011;10349;48.666;8.948;2022-08-19T09:34:56;19.00;;;14.27;;
20379;SDS011;10349;48.666;8.948;2022-08-19T09:37:23;20.10;;;14.73;;
20379;SDS011;10349;48.666;8.948;2022-08-19T09:39:50;24.57;;;14.47;;
20379;SDS011;10349;48.666;8.948;2022-08-19T09:42:16;16.73;;;14.00;;
20379;SDS011;10349;48.666;8.948;2022-08-19T09:44:42;23.13;;;14.93;;
20379;SDS011;10349;48.666;8.948;2022-08-19T09:47:09;19.43;;;14.07;;
20379;SDS011;10349;48.666;8.948;2022-08-19T09:49:36;20.20;;;15.70;;
20379;SDS011;10349;48.666;8.948;2022-08-19T09:52:03;21.00;;;15.20;;
20379;SDS011;10349;48.666;8.948;2022-08-19T09:54:30;22.10;;;15.50;;
20379;SDS011;10349;48.666;8.948;2022-08-19T09:56:57;20.70;;;15.20;;
20379;SDS011;10349;48.666;8.948;2022-08-19T09:59:25;24.07;;;15.60;;
20379;SDS011;10349;48.666;8.948;2022-08-19T10:01:51;19.60;;;15.53;;
20379;SDS011;10349;48.666;8.948;2022-08-19T10:04:18;22.90;;;15.83;;
20379;SDS011;10349;48.666;8.948;2022-08-19T10:06:46;21.40;;;15.10;;
20379;SDS011;10349;48.666;8.948;2022-08-19T10:09:14;18.93;;;13.70;;
20379;SDS011;10349;48.666;8.948;2022-08-19T10:11:42;15.50;;;12.97;;
20379;SDS011;10349;48.666;8.948;2022-08-19T10:14:13;19.80;;;12.63;;
20379;SDS011;10349;48.666;8.948;2022-08-19T10:16:39;15.90;;;13.50;;
20379;SDS011;10349;48.666;8.948;2022-08-19T10:19:06;16.90;;;13.20;;
20379;SDS011;10349;48.666;8.948;2022-08-19T10:21:32;19.00;;;12.50;;
20379;SDS011;10349;48.666;8.948;2022-08-19T10:24:01;15.00;;;13.50;;
20379;SDS011;10349;48.666;8.948;2022-08-19T10:26:38;18.53;;;13.93;;
20379;SDS011;10349;48.666;8.948;2022-08-19T10:29:10;15.40;;;12.40;;
20379;SDS011;10349;48.666;8.948;2022-08-19T10:31:36;13.90;;;10.90;;
20379;SDS011;10349;48.666;8.948;2022-08-19T10:34:02;20.47;;;14.97;;
20379;SDS011;10349;48.666;8.948;2022-08-19T10:36:30;16.27;;;11.83;;
20379;SDS011;10349;48.666;8.948;2022-08-19T10:38:58;14.13;;;12.67;;
20379;SDS011;10349;48.666;8.948;2022-08-19T10:41:28;15.57;;;11.43;;
20379;SDS011;10349;48.666;8.948;2022-08-19T10:43:57;12.37;;;11.07;;
20379;SDS011;10349;48.666;8.948;2022-08-19T10:46:28;11.00;;;9.90;;
20379;SDS011;10349;48.666;8.948;2022-08-19T10:48:57;14.73;;;10.10;;
20379;SDS011;10349;48.666;8.948;2022-08-19T10:51:27;12.30;;;10.03;;
20379;SDS011;10349;48.666;8.948;2022-08-19T10:54:12;12.80;;;9.83;;
20379;SDS011;10349;48.666;8.948;2022-08-19T10:56:38;18.40;;;12.20;;
20379;SDS011;10349;48.666;8.948;2022-08-19T10:59:20;13.47;;;11.73;;
20379;SDS011;10349;48.666;8.948;2022-08-19T11:01:52;12.63;;;11.20;;
20379;SDS011;10349;48.666;8.948;2022-08-19T11:04:19;12.30;;;11.07;;
20379;SDS011;10349;48.666;8.948;2022-08-19T11:06:47;14.80;;;10.80;;
20379;SDS011;10349;48.666;8.948;2022-08-19T11:09:18;13.17;;;10.40;;
20379;SDS011;10349;48.666;8.948;2022-08-19T11:11:46;13.97;;;10.47;;
20379;SDS011;10349;48.666;8.948;2022-08-19T11:14:14;10.80;;;9.80;;
20379;SDS011;10349;48.666;8.948;2022-08-19T11:16:41;12.30;;;10.60;;
20379;SDS011;10349;48.666;8.948;2022-08-19T11:19:08;13.67;;;11.40;;
20379;SDS011;10349;48.666;8.948;2022-08-19T11:21:39;12.13;;;10.83;;
20379;SDS011;10349;48.666;8.948;2022-08-19T11:24:08;14.57;;;12.93;;
20379;SDS011;10349;48.666;8.948;2022-08-19T11:26:37;12.40;;;10.13;;
20379;SDS011;10349;48.666;8.948;2022-08-19T11:29:04;11.97;;;10.77;;
20379;SDS011;10349;48.666;8.948;2022-08-19T11:31:34;10.57;;;9.30;;
20379;SDS011;10349;48.666;8.948;2022-08-19T11:34:02;11.00;;;9.90;;
20379;SDS011;10349;48.666;8.948;2022-08-19T11:36:32;11.10;;;10.00;;
20379;SDS011;10349;48.666;8.948;2022-08-19T11:38:59;9.23;;;8.43;;
20379;SDS011;10349;48.666;8.948;2022-08-19T11:41:26;11.67;;;9.90;;
20379;SDS011;10349;48.666;8.948;2022-08-19T11:43:52;10.50;;;8.53;;
20379;SDS011;10349;48.666;8.948;2022-08-19T11:46:20;11.20;;;9.50;;
20379;SDS011;10349;48.666;8.948;2022-08-19T11:48:48;12.23;;;9.70;;
20379;SDS011;10349;48.666;8.948;2022-08-19T11:51:16;9.40;;;8.50;;
20379;SDS011;10349;48.666;8.948;2022-08-19T11:53:43;10.03;;;8.57;;
20379;SDS011;10349;48.666;8.948;2022-08-19T11:56:10;10.40;;;9.10;;
20379;SDS011;10349;48.666;8.948;2022-08-19T11:58:36;9.90;;;8.73;;
20379;SDS011;10349;48.666;8.948;2022-08-19T12:01:06;9.97;;;9.07;;
20379;SDS011;10349;48.666;8.948;2022-08-19T12:03:33;9.90;;;8.90;;
20379;SDS011;10349;48.666;8.948;2022-08-19T12:06:03;9.10;;;8.20;;
20379;SDS011;10349;48.666;8.948;2022-08-19T12:08:33;10.33;;;9.17;;
20379;SDS011;10349;48.666;8.948;2022-08-19T12:10:59;11.53;;;9.60;;
20379;SDS011;10349;48.666;8.948;2022-08-19T12:13:27;9.47;;;8.70;;
20379;SDS011;10349;48.666;8.948;2022-08-19T12:15:53;9.70;;;8.80;;
20379;SDS011;10349;48.666;8.948;2022-08-19T12:18:19;10.47;;;9.57;;
20379;SDS011;10349;48.666;8.948;2022-08-19T12:20:44;9.97;;;8.97;;
20379;SDS011;10349;48.666;8.948;2022-08-19T12:23:11;9.47;;;8.57;;
20379;SDS011;10349;48.666;8.948;2022-08-19T12:25:37;9.13;;;8.33;;
20379;SDS011;10349;48.666;8.948;2022-08-19T12:28:24;8.23;;;7.53;;
20379;SDS011;10349;48.666;8.948;2022-08-19T12:30:50;8.70;;;8.00;;
20379;SDS011;10349;48.666;8.948;2022-08-19T12:33:17;8.47;;;7.60;;
20379;SDS011;10349;48.666;8.948;2022-08-19T12:35:45;7.10;;;6.60;;
20379;SDS011;10349;48.666;8.948;2022-08-19T12:38:12;7.37;;;6.77;;
20379;SDS011;10349;48.666;8.948;2022-08-19T12:40:38;7.60;;;7.00;;
20379;SDS011;10349;48.666;8.948;2022-08-19T12:43:07;7.90;;;7.20;;
20379;SDS011;10349;48.666;8.948;2022-08-19T12:45:33;6.67;;;6.27;;
20379;SDS011;10349;48.666;8.948;2022-08-19T12:47:59;8.40;;;7.70;;
20379;SDS011;10349;48.666;8.948;2022-08-19T12:50:24;7.77;;;7.17;;
20379;SDS011;10349;48.666;8.948;2022-08-19T12:52:50;7.53;;;7.03;;
20379;SDS011;10349;48.666;8.948;2022-08-19T12:55:16;7.20;;;6.60;;
20379;SDS011;10349;48.666;8.948;2022-08-19T12:57:43;6.80;;;6.30;;
20379;SDS011;10349;48.666;8.948;2022-08-19T13:00:10;7.73;;;7.13;;
20379;SDS011;10349;48.666;8.948;2022-08-19T13:02:39;8.40;;;7.60;;
20379;SDS011;10349;48.666;8.948;2022-08-19T13:05:07;7.00;;;6.43;;
20379;SDS011;10349;48.666;8.948;2022-08-19T13:07:36;7.53;;;7.00;;
20379;SDS011;10349;48.666;8.948;2022-08-19T13:10:04;7.27;;;6.80;;
20379;SDS011;10349;48.666;8.948;2022-08-19T13:12:30;8.67;;;7.97;;
20379;SDS011;10349;48.666;8.948;2022-08-19T13:14:56;7.80;;;7.20;;
20379;SDS011;10349;48.666;8.948;2022-08-19T13:17:22;7.73;;;7.10;;
20379;SDS011;10349;48.666;8.948;2022-08-19T13:19:48;7.60;;;7.03;;
20379;SDS011;10349;48.666;8.948;2022-08-19T13:22:13;8.37;;;7.67;;
20379;SDS011;10349;48.666;8.948;2022-08-19T13:24:39;8.70;;;7.80;;
20379;SDS011;10349;48.666;8.948;2022-08-19T13:27:05;7.93;;;7.40;;
20379;SDS011;10349;48.666;8.948;2022-08-19T13:29:31;8.87;;;8.07;;
20379;SDS011;10349;48.666;8.948;2022-08-19T13:32:16;8.60;;;8.00;;
20379;SDS011;10349;48.666;8.948;2022-08-19T13:35:01;9.10;;;8.40;;
20379;SDS011;10349;48.666;8.948;2022-08-19T13:37:27;9.70;;;9.00;;
20379;SDS011;10349;48.666;8.948;2022-08-19T13:40:10;10.13;;;9.17;;
20379;SDS011;10349;48.666;8.948;2022-08-19T13:42:41;10.50;;;9.60;;
20379;SDS011;10349;48.666;8.948;2022-08-19T13:45:07;10.67;;;9.67;;
20379;SDS011;10349;48.666;8.948;2022-08-19T13:47:34;9.53;;;8.80;;
20379;SDS011;10349;48.666;8.948;2022-08-19T13:50:00;11.67;;;10.37;;
20379;SDS011;10349;48.666;8.948;2022-08-19T13:52:28;11.20;;;10.10;;
20379;SDS011;10349;48.666;8.948;2022-08-19T13:54:54;9.83;;;9.07;;
20379;SDS011;10349;48.666;8.948;2022-08-19T13:57:21;12.00;;;10.83;;
20379;SDS011;10349;48.666;8.948;2022-08-19T13:59:47;10.33;;;9.33;;
20379;SDS011;10349;48.666;8.948;2022-08-19T14:02:13;10.77;;;9.87;;
20379;SDS011;10349;48.666;8.948;2022-08-19T14:04:39;10.40;;;9.30;;
20379;SDS011;10349;48.666;8.948;2022-08-19T14:07:05;20.30;;;10.03;;
20379;SDS011;10349;48.666;8.948;2022-08-19T14:09:30;10.77;;;9.43;;
20379;SDS011;10349;48.666;8.948;2022-08-19T14:11:56;8.90;;;8.10;;
20379;SDS011;10349;48.666;8.948;2022-08-19T14:14:22;9.50;;;8.80;;
20379;SDS011;10349;48.666;8.948;2022-08-19T14:16:48;11.40;;;10.20;;
20379;SDS011;10349;48.666;8.948;2022-08-19T14:19:14;10.03;;;9.23;;
20379;SDS011;10349;48.666;8.948;2022-08-19T14:21:40;9.60;;;8.70;;
20379;SDS011;10349;48.666;8.948;2022-08-19T14:24:06;16.03;;;10.33;;
20379;SDS011;10349;48.666;8.948;2022-08-19T14:26:33;10.10;;;9.20;;
20379;SDS011;10349;48.666;8.948;2022-08-19T14:28:59;10.13;;;9.37;;
20379;SDS011;10349;48.666;8.948;2022-08-19T14:31:26;9.40;;;8.60;;
20379;SDS011;10349;48.666;8.948;2022-08-19T14:33:52;8.93;;;8.23;;
20379;SDS011;10349;48.666;8.948;2022-08-19T14:36:18;10.30;;;9.40;;
20379;SDS011;10349;48.666;8.948;2022-08-19T14:38:45;11.93;;;9.33;;
20379;SDS011;10349;48.666;8.948;2022-08-19T14:41:13;10.07;;;9.37;;